This is the latest recevied weather packets stored in our database for station/object IU1OPQ-3. If no packets are shown the sender has not sent any weather packets the latest 1 day(s).
| Time | Temp. | Humidity | Pressure | Rain* | Wind** | Luminosity | Snow |
|---|---|---|---|---|---|---|---|
| 1778074201 | 18.33° C | 63% | 1006.6 hPa | 0 mm | - | - | - |
| 1778071501 | 18.33° C | 65% | 1006.6 hPa | 0 mm | - | - | - |
| 1778067001 | 19.44° C | 62% | 1006.9 hPa | 0 mm | - | - | - |
| 1778064301 | 18.33° C | 66% | 1007.3 hPa | 0 mm | - | - | - |
| 1778061602 | 16.11° C | 78% | 1007.7 hPa | 0 mm | - | - | - |
| 1778060701 | 14.44° C | 80% | 1007.8 hPa | 0 mm | - | - | - |
| 1778058001 | 12.22° C | 93% | 1007.8 hPa | 0 mm | - | - | - |
| 1778057101 | 12.22° C | 94% | 1007.8 hPa | 0 mm | - | - | - |
| 1778055301 | 11.67° C | 96% | 1008 hPa | 0 mm | - | - | - |
| 1778054401 | 11.67° C | 95% | 1007.7 hPa | 0 mm | - | - | - |
| 1778052601 | 10.56° C | 98% | 1007.8 hPa | 0 mm | - | - | - |
| 1778049901 | 11.11° C | 99% | 1007.6 hPa | 0 mm | - | - | - |
| 1778044501 | 10.56° C | 99% | 1008.4 hPa | 0 mm | - | - | - |
| 1778043602 | 10.56° C | 99% | 1008.5 hPa | 0 mm | - | - | - |
| 1778042701 | 10.56° C | 99% | 1008.5 hPa | 0 mm | - | - | - |
| 1778040001 | 10.56° C | 99% | 1008.8 hPa | 0 mm | - | - | - |
| 1778039101 | 10.56° C | 99% | 1008.9 hPa | 0 mm | - | - | - |
| 1778035501 | 10.56° C | 99% | 1009.6 hPa | 0 mm | - | - | - |
| 1778034601 | 10.56° C | 99% | 1009.6 hPa | 0 mm | - | - | - |
| 1778033701 | 10.56° C | 99% | 1009.6 hPa | 0 mm | - | - | - |
| 1778032801 | 10.56° C | 99% | 1009.9 hPa | 0.25 mm | - | - | - |
| 1778029201 | 10.56° C | 99% | 1010.3 hPa | 0.51 mm | - | - | - |
| 1778027401 | 10.56° C | 98% | 1010.9 hPa | 0.25 mm | - | - | - |
| 1778026501 | 10.56° C | 98% | 1010.9 hPa | 0 mm | - | - | - |
| 1778023801 | 11.11° C | 99% | 1011.5 hPa | 0 mm | - | - | - |
* Rain latest hour (hover to see other rain measurements)
** Current wind speed in m/s (hover to see current wind gust speed)